Hannibal Center, New York
Current Conditions -  °F | °C
As of 9:54 AM on Thursday 23 Oct 2014 (Local Time) from KFZY Reporting Station
Clear Clear  
Wind Chill: 50°   Ceiling: Unl
Heat Index: 50°   Visibility: 10mi
Dew Point: 37°   Wind: 17mph
Humidity: 61%   Direction: 360°N
Pressure: 30"   Gusts: 25mph
Location:  43.3091°N, 76.5484°W
Report Text: KFZY 231354Z AUTO 36015G22KT 10SM CLR 10/03 A3000 RMK AO2 PK WND 02026/1255 SLP162 T01000028
Loading
Personal Weather Stations






























Interactive Weather Map
Tropical Storm Tracking
New forecast layout! Learn more

10-Day Weather Forecast

Advertisements
Track Severe Weather on mobile